CheckWX is a tool to help pilots better visualize weather data.  It is not intended as a substitute for an official pre-flight weather briefing.

12:03:18 UTC

KOWB METAR
Owensboro-Daviess County Regional Airport
Owensboro, Kentucky, USA
Current

1 hour ago

KOWB 241056Z 00000KT 7SM CLR 21/20 A3012 RMK AO2 SLP204 T02110200
Observed
May-24 @ 10:56 UTC
Visibility
7 SM
Flight Rules
VFR
Cloud Levels
  • Clear skies
Temperature
21°C / 70°F
Dewpoint
20°C / 68°F
Humidity
94%
Altimeter
30.12" Hg
Pressure
1020.02 hPa
Previous

2 hours ago

KOWB 240956Z AUTO 19003KT 8SM CLR 21/21 A3010 RMK AO2 SLP197 T02110206
Observed
May-24 @ 09:56 UTC
Wind
  • 190° at 3 KTS
Visibility
8 SM
Flight Rules
VFR
Cloud Levels
  • Clear skies
Temperature
21°C / 70°F
Dewpoint
21°C / 70°F
Humidity
100%
Altimeter
30.1" Hg
Pressure
1019.32 hPa
Previous

3 hours ago

KOWB 240856Z AUTO 00000KT 7SM CLR 22/21 A3009 RMK AO2 SLP192 T02170211 55002
Observed
May-24 @ 08:56 UTC
Visibility
7 SM
Flight Rules
VFR
Cloud Levels
  • Clear skies
Temperature
22°C / 72°F
Dewpoint
21°C / 70°F
Humidity
94%
Altimeter
30.09" Hg
Pressure
1018.92 hPa